Time;durP1;ratioP1;P1;durP2;ratioP2;P2;SDS_P1;SDS_P2;PMS_P1;PMS_P2;Temp;Humidity;BMP_temperature;BMP_pressure;BME280_temperature;BME280_humidity;BME280_pressure;Samples;Min_cycle;Max_cycle;Signal;HPM_P1;HPM_P2
2023/12/06 00:01:22;;;;;;;2.83;1.63;;;;;;;13.15;51.00;95793.31;5083574;28;20028;-26
2023/12/06 00:03:47;;;;;;;2.85;1.58;;;;;;;13.20;50.00;95790.00;5083915;28;20080;-26
2023/12/06 00:06:13;;;;;;;2.42;1.40;;;;;;;13.37;49.81;95792.34;5080476;28;20035;-26
2023/12/06 00:08:38;;;;;;;2.65;0.98;;;;;;;13.16;49.81;95788.63;5080813;28;20028;-26
2023/12/06 00:11:04;;;;;;;3.90;0.90;;;;;;;13.32;49.83;95795.69;5084932;28;20020;-26
2023/12/06 00:13:30;;;;;;;2.20;1.17;;;;;;;13.11;50.66;95787.25;5087227;28;20020;-26
2023/12/06 00:15:55;;;;;;;2.03;1.00;;;;;;;13.33;49.78;95791.75;5086058;28;20024;-26
2023/12/06 00:18:21;;;;;;;3.47;1.40;;;;;;;13.20;50.32;95790.00;5076143;28;20454;-26
2023/12/06 00:20:46;;;;;;;6.30;1.38;;;;;;;13.15;50.71;95804.22;5083266;28;20103;-26
2023/12/06 00:23:12;;;;;;;3.67;1.40;;;;;;;13.19;50.25;95788.47;5077330;28;20070;-26
2023/12/06 00:25:37;;;;;;;3.83;1.50;;;;;;;13.21;50.23;95786.06;5087152;28;20016;-26
2023/12/06 00:28:03;;;;;;;2.70;1.60;;;;;;;13.15;50.49;95793.31;5079769;28;20028;-26
2023/12/06 00:30:29;;;;;;;3.78;1.80;;;;;;;13.23;50.48;95801.91;5065456;28;20377;-26
2023/12/06 00:32:54;;;;;;;171.13;57.75;;;;;;;13.04;50.81;95798.47;5076062;28;20020;-26
2023/12/06 00:35:20;;;;;;;320.83;118.38;;;;;;;13.07;50.54;95792.13;5083023;28;20039;-26
2023/12/06 00:37:45;;;;;;;265.85;93.88;;;;;;;13.05;50.56;95791.81;5083624;28;20444;-26
2023/12/06 00:40:11;;;;;;;187.48;68.20;;;;;;;13.03;50.68;95791.50;5083054;28;20031;-26
2023/12/06 00:42:37;;;;;;;104.78;37.95;;;;;;;13.15;50.64;95790.59;5083086;28;20024;-26
2023/12/06 00:45:02;;;;;;;37.10;15.18;;;;;;;13.14;50.30;95797.25;5083189;28;20056;-26
2023/12/06 00:47:28;;;;;;;21.13;7.72;;;;;;;13.17;49.84;95793.63;5082266;28;20052;-26
2023/12/06 00:49:54;;;;;;;12.98;4.55;;;;;;;13.02;50.51;95798.16;5086477;28;20106;-26
2023/12/06 00:52:19;;;;;;;7.35;2.97;;;;;;;13.10;50.37;95799.38;5086063;28;20068;-26
2023/12/06 00:54:47;;;;;;;3.70;1.90;;;;;;;13.12;50.33;95802.38;5083824;28;20031;-26
2023/12/06 00:57:13;;;;;;;3.60;1.90;;;;;;;13.09;50.93;95800.59;5076098;28;20016;-26
2023/12/06 00:59:38;;;;;;;3.17;1.50;;;;;;;13.00;51.01;95800.59;5082809;28;20025;-26
2023/12/06 01:02:04;;;;;;;3.15;1.70;;;;;;;13.23;50.55;95799.94;5085350;28;20020;-26
2023/12/06 01:04:29;;;;;;;2.92;1.85;;;;;;;13.02;51.27;95797.41;5080453;28;20462;-26
2023/12/06 01:06:55;;;;;;;3.63;1.40;;;;;;;13.26;50.25;95801.75;5082664;28;20389;-26
2023/12/06 01:09:20;;;;;;;3.75;1.30;;;;;;;13.20;50.73;95808.28;5082779;28;20487;-26
2023/12/06 01:11:45;;;;;;;3.72;1.42;;;;;;;13.10;50.97;95814.94;5082555;28;20020;-26
2023/12/06 01:14:11;;;;;;;3.03;1.42;;;;;;;12.95;51.71;95806.66;5077099;28;20028;-26
2023/12/06 01:16:36;;;;;;;4.65;1.52;;;;;;;13.15;51.11;95809.66;5085714;28;20031;-26
2023/12/06 01:19:02;;;;;;;2.90;1.35;;;;;;;13.02;51.50;95813.75;5084526;28;20016;-26
2023/12/06 01:21:28;;;;;;;3.67;1.15;;;;;;;12.98;51.34;95811.19;5085640;28;20435;-26
2023/12/06 01:23:54;;;;;;;3.80;1.48;;;;;;;13.10;51.13;95809.50;5086398;28;20082;-26
2023/12/06 01:26:20;;;;;;;2.40;1.25;;;;;;;13.13;51.14;95817.50;5082760;28;20050;-26
2023/12/06 01:28:45;;;;;;;1.55;1.27;;;;;;;13.22;51.28;95814.03;5079365;28;20016;-26
2023/12/06 01:31:11;;;;;;;4.72;1.45;;;;;;;13.16;51.13;95815.84;5077279;28;20382;-26
2023/12/06 01:33:36;;;;;;;1.75;1.10;;;;;;;13.26;51.10;95814.63;5085044;28;20031;-26
2023/12/06 01:36:02;;;;;;;3.80;1.20;;;;;;;13.02;51.59;95809.06;5079407;28;20021;-26
2023/12/06 01:38:27;;;;;;;1.33;1.13;;;;;;;13.17;51.36;95807.22;5075194;28;20413;-26
2023/12/06 01:40:53;;;;;;;2.20;1.35;;;;;;;13.17;51.60;95811.94;5067399;28;20016;-26
2023/12/06 01:43:18;;;;;;;3.22;1.23;;;;;;;13.14;51.86;95819.03;5077833;28;20021;-26
2023/12/06 01:45:44;;;;;;;3.38;1.38;;;;;;;13.21;51.33;95807.84;5082014;28;20028;-26
2023/12/06 01:48:11;;;;;;;1.65;1.08;;;;;;;13.06;51.69;95800.72;5082035;28;20072;-26
2023/12/06 01:50:38;;;;;;;3.60;1.30;;;;;;;13.07;51.57;95811.16;5081961;28;20028;-26
2023/12/06 01:53:04;;;;;;;2.20;1.20;;;;;;;13.24;51.16;95817.78;5081905;28;20074;-26
2023/12/06 01:55:31;;;;;;;1.88;1.10;;;;;;;13.17;51.46;95818.13;5081585;28;20020;-26
2023/12/06 01:57:57;;;;;;;2.20;1.17;;;;;;;13.04;51.76;95803.91;5082237;28;20035;-26
2023/12/06 02:00:24;;;;;;;2.53;1.10;;;;;;;13.23;51.36;95810.84;5079471;28;20077;-26
2023/12/06 02:02:50;;;;;;;3.17;1.00;;;;;;;13.18;51.05;95806.03;5082763;28;20026;-26
2023/12/06 02:05:16;;;;;;;1.67;1.13;;;;;;;13.17;51.50;95806.47;5056163;28;20432;-27
2023/12/06 02:07:43;;;;;;;1.90;0.93;;;;;;;13.19;50.79;95802.09;5081682;28;20048;-26
2023/12/06 02:10:09;;;;;;;2.83;1.85;;;;;;;13.21;50.94;95807.84;5072777;28;20020;-26
2023/12/06 02:12:35;;;;;;;2.85;1.05;;;;;;;13.14;51.08;95802.69;5084642;28;20050;-26
2023/12/06 02:15:01;;;;;;;2.88;1.02;;;;;;;13.21;50.65;95807.84;5083372;28;20052;-26
2023/12/06 02:17:27;;;;;;;2.25;0.80;;;;;;;13.19;50.89;95796.66;5085088;28;20027;-26
2023/12/06 02:19:54;;;;;;;2.53;0.90;;;;;;;13.15;50.88;95790.59;5084137;28;20107;-26
2023/12/06 02:22:21;;;;;;;4.00;0.75;;;;;;;13.09;51.16;95784.25;5083014;28;20074;-27
2023/12/06 02:24:51;;;;;;;4.47;0.80;;;;;;;13.18;50.75;95788.94;5084087;28;20024;-26
2023/12/06 02:27:17;;;;;;;2.67;1.00;;;;;;;13.08;50.86;95788.19;5081841;28;20052;-26
2023/12/06 02:29:42;;;;;;;4.53;1.10;;;;;;;13.07;51.06;95794.09;5077977;28;20059;-26
2023/12/06 02:32:09;;;;;;;1.75;0.77;;;;;;;12.98;51.14;95800.31;5058661;28;20104;-26
2023/12/06 02:34:36;;;;;;;2.35;1.00;;;;;;;12.99;50.58;95790.91;5080986;28;20025;-26
2023/12/06 02:37:04;;;;;;;2.78;0.93;;;;;;;12.90;51.01;95793.66;5081216;28;20362;-26
2023/12/06 02:39:34;;;;;;;2.20;0.90;;;;;;;13.02;51.21;95797.41;5081549;28;20111;-26
2023/12/06 02:42:00;;;;;;;3.25;1.00;;;;;;;13.01;51.28;95804.06;5086596;28;20023;-26
2023/12/06 02:44:25;;;;;;;2.15;0.70;;;;;;;13.04;50.56;95797.72;5080992;28;20423;-26
2023/12/06 02:46:51;;;;;;;2.13;0.80;;;;;;;12.91;51.35;95789.72;5076381;28;20027;-27
2023/12/06 02:49:16;;;;;;;2.60;0.88;;;;;;;13.00;51.02;95792.41;5084120;28;20044;-26
2023/12/06 02:51:42;;;;;;;2.05;0.90;;;;;;;13.09;51.08;95789.69;5075150;28;20032;-26
2023/12/06 02:54:07;;;;;;;2.92;0.93;;;;;;;13.06;50.84;95779.72;5083736;28;20055;-26
2023/12/06 02:56:33;;;;;;;4.28;1.00;;;;;;;13.09;50.65;95781.53;5083454;28;20020;-26
2023/12/06 02:58:58;;;;;;;3.15;0.82;;;;;;;13.02;51.11;95784.56;5080475;28;20489;-26
2023/12/06 03:01:23;;;;;;;3.25;1.48;;;;;;;12.98;51.38;95789.41;5081142;28;20031;-26
2023/12/06 03:03:49;;;;;;;1.80;0.90;;;;;;;12.93;50.96;95792.75;5080586;28;20028;-26
2023/12/06 03:06:14;;;;;;;1.33;0.82;;;;;;;13.18;50.24;95800.56;5080975;28;20020;-26
2023/12/06 03:08:40;;;;;;;1.92;0.93;;;;;;;13.10;50.72;95802.09;5080667;28;20048;-26
2023/12/06 03:11:05;;;;;;;1.98;0.75;;;;;;;13.21;50.72;95802.41;5080767;28;20466;-26
2023/12/06 03:13:31;;;;;;;2.30;0.77;;;;;;;13.10;51.58;95802.09;5083492;28;20380;-26
2023/12/06 03:15:56;;;;;;;8.00;1.02;;;;;;;12.97;52.57;95803.47;5082955;28;20028;-26
2023/12/06 03:18:22;;;;;;;2.65;1.00;;;;;;;13.18;52.11;95808.75;5076339;28;20022;-26
2023/12/06 03:20:47;;;;;;;4.65;1.02;;;;;;;13.09;52.78;95808.75;5077933;28;20031;-26
2023/12/06 03:23:13;;;;;;;4.32;0.98;;;;;;;12.87;53.37;95800.00;5087539;28;20032;-26
2023/12/06 03:25:38;;;;;;;3.45;1.10;;;;;;;13.15;52.57;95804.22;5080217;28;20028;-26
2023/12/06 03:28:04;;;;;;;3.30;1.08;;;;;;;13.16;52.95;95805.72;5087753;28;20385;-26
2023/12/06 03:30:29;;;;;;;2.80;1.30;;;;;;;13.12;53.10;95804.34;5080456;28;20458;-26
2023/12/06 03:32:55;;;;;;;2.95;1.30;;;;;;;13.10;53.49;95802.09;5085705;28;20020;-26
2023/12/06 03:35:20;;;;;;;2.97;1.10;;;;;;;13.06;53.76;95795.28;5083235;28;20024;-26
2023/12/06 03:37:46;;;;;;;2.92;1.00;;;;;;;13.18;53.21;95800.56;5076566;28;20016;-26
2023/12/06 03:40:12;;;;;;;3.35;1.27;;;;;;;13.15;53.66;95801.50;5083789;28;20377;-27
2023/12/06 03:42:37;;;;;;;2.80;1.27;;;;;;;13.03;53.63;95802.41;5080197;28;20059;-26
2023/12/06 03:45:03;;;;;;;3.10;1.30;;;;;;;12.94;54.09;95802.41;5079917;28;20067;-26
2023/12/06 03:47:28;;;;;;;4.00;1.65;;;;;;;13.04;53.81;95803.91;5072226;28;20045;-26
2023/12/06 03:49:54;;;;;;;7.05;3.15;;;;;;;13.02;53.42;95800.88;5080523;28;20373;-26
2023/12/06 03:52:20;;;;;;;7.40;3.13;;;;;;;13.11;53.04;95806.31;5079096;28;20145;-26
2023/12/06 03:54:45;;;;;;;4.22;2.40;;;;;;;12.95;53.66;95801.97;5075187;28;20048;-26
2023/12/06 03:57:12;;;;;;;4.00;2.17;;;;;;;13.00;53.51;95805.28;5086253;28;20017;-27
2023/12/06 03:59:37;;;;;;;3.35;1.80;;;;;;;12.96;53.23;95805.44;5087293;28;20028;-26
2023/12/06 04:02:03;;;;;;;6.85;2.60;;;;;;;13.03;53.26;95813.28;5082602;28;20922;-26
2023/12/06 04:04:28;;;;;;;4.53;2.10;;;;;;;13.10;53.16;95812.97;5083755;28;20020;-26
2023/12/06 04:06:54;;;;;;;4.13;2.15;;;;;;;12.84;53.32;95803.66;5074641;28;20025;-26
2023/12/06 04:09:19;;;;;;;3.10;1.98;;;;;;;12.77;53.35;95806.66;5079662;28;20062;-26
2023/12/06 04:11:45;;;;;;;4.13;2.20;;;;;;;13.05;52.69;95804.66;5079572;28;20020;-26
2023/12/06 04:14:10;;;;;;;3.47;1.75;;;;;;;12.87;52.75;95808.91;5079540;28;20039;-26
2023/12/06 04:16:37;;;;;;;3.55;2.25;;;;;;;12.87;53.15;95805.44;5079589;28;20020;-26
2023/12/06 04:19:02;;;;;;;4.03;1.88;;;;;;;12.95;52.68;95795.78;5079445;28;20028;-26
2023/12/06 04:21:28;;;;;;;3.85;1.80;;;;;;;13.02;52.52;95805.56;5079392;28;20493;-26
2023/12/06 04:23:54;;;;;;;3.65;2.00;;;;;;;13.18;52.35;95808.75;5081697;28;20051;-27
2023/12/06 04:26:20;;;;;;;2.30;1.67;;;;;;;13.11;52.09;95808.28;5078826;28;20417;-26
2023/12/06 04:28:45;;;;;;;12.75;3.17;;;;;;;12.98;52.65;95810.44;5088913;28;20024;-26
2023/12/06 04:31:11;;;;;;;3.67;1.73;;;;;;;12.98;52.52;95803.03;5083366;28;20104;-26
2023/12/06 04:33:36;;;;;;;3.75;1.48;;;;;;;12.92;52.81;95802.88;5072306;28;20465;-26
2023/12/06 04:36:02;;;;;;;4.55;1.60;;;;;;;12.97;52.79;95808.94;5083777;28;20021;-26
2023/12/06 04:38:27;;;;;;;3.60;1.70;;;;;;;13.07;52.43;95807.69;5091153;28;20030;-26
2023/12/06 04:40:53;;;;;;;3.08;1.80;;;;;;;12.85;52.72;95805.16;5087261;28;20020;-26
2023/12/06 04:43:18;;;;;;;2.67;1.77;;;;;;;12.81;52.77;95804.56;5086497;28;20477;-26
2023/12/06 04:45:44;;;;;;;2.22;1.60;;;;;;;12.83;52.59;95815.75;5085155;28;20023;-26
2023/12/06 04:48:09;;;;;;;3.22;1.25;;;;;;;12.89;52.70;95816.63;5085931;28;20489;-26
2023/12/06 04:50:35;;;;;;;5.13;1.40;;;;;;;12.87;52.61;95803.47;5085043;28;20380;-26
2023/12/06 04:53:00;;;;;;;1.35;0.82;;;;;;;12.93;52.75;95809.06;5086422;28;20020;-26
2023/12/06 04:55:26;;;;;;;2.15;0.70;;;;;;;12.91;52.50;95814.97;5079924;28;20473;-26
2023/12/06 04:57:52;;;;;;;5.18;1.23;;;;;;;12.92;52.20;95813.00;5082914;28;20023;-26
2023/12/06 05:00:18;;;;;;;1.63;0.70;;;;;;;12.78;52.15;95810.91;5080372;28;20016;-26
2023/12/06 05:02:44;;;;;;;2.45;0.80;;;;;;;12.89;52.25;95809.22;5084727;28;20084;-26
2023/12/06 05:05:09;;;;;;;2.67;0.90;;;;;;;12.83;52.29;95810.31;5082681;28;20020;-26
2023/12/06 05:07:35;;;;;;;3.20;0.73;;;;;;;12.73;52.13;95811.53;5082678;28;20070;-26
2023/12/06 05:10:01;;;;;;;1.90;0.77;;;;;;;12.75;52.26;95815.28;5082523;28;20466;-26
2023/12/06 05:12:26;;;;;;;2.72;0.75;;;;;;;12.75;52.17;95814.53;5075563;28;20015;-27
2023/12/06 05:14:52;;;;;;;2.53;0.85;;;;;;;12.63;52.16;95810.75;5083143;28;20462;-27
2023/12/06 05:17:17;;;;;;;2.15;0.82;;;;;;;12.73;52.04;95814.25;5082630;28;20016;-26
2023/12/06 05:19:43;;;;;;;3.10;0.90;;;;;;;12.62;52.40;95816.66;5082707;28;20020;-27
2023/12/06 05:22:08;;;;;;;5.13;1.30;;;;;;;12.64;52.46;95814.22;5082361;28;20486;-26
2023/12/06 05:24:34;;;;;;;3.00;1.10;;;;;;;12.63;52.51;95808.03;5082462;28;20024;-26
2023/12/06 05:26:59;;;;;;;3.70;1.42;;;;;;;12.76;52.25;95802.44;5082433;28;20069;-27
2023/12/06 05:29:25;;;;;;;2.83;1.20;;;;;;;12.71;52.14;95797.63;5082374;28;20070;-26
2023/12/06 05:31:50;;;;;;;3.80;1.30;;;;;;;12.71;52.33;95803.06;5080344;28;20039;-26
2023/12/06 05:34:15;;;;;;;3.05;1.50;;;;;;;12.59;52.50;95802.00;5083634;28;20373;-26
2023/12/06 05:36:41;;;;;;;4.80;2.10;;;;;;;12.64;52.13;95798.66;5085703;28;20525;-26
2023/12/06 05:39:07;;;;;;;4.40;2.60;;;;;;;12.65;51.74;95802.16;5086583;28;20025;-26
2023/12/06 05:41:33;;;;;;;6.65;2.80;;;;;;;12.73;51.61;95795.22;5089459;28;20020;-26
2023/12/06 05:43:58;;;;;;;6.38;3.17;;;;;;;12.58;52.07;95811.38;5075178;28;20466;-26
2023/12/06 05:46:24;;;;;;;4.93;3.05;;;;;;;12.60;51.60;95811.69;5089316;28;20023;-26
2023/12/06 05:48:49;;;;;;;5.90;2.80;;;;;;;12.71;51.71;95808.50;5077254;28;20048;-27
2023/12/06 05:51:14;;;;;;;5.55;2.50;;;;;;;12.59;51.99;95816.38;5084858;28;20008;-26
2023/12/06 05:53:40;;;;;;;5.65;2.47;;;;;;;12.54;51.70;95825.13;5075817;28;20028;-27
2023/12/06 05:56:06;;;;;;;4.38;2.45;;;;;;;12.64;51.55;95825.88;5085713;28;20073;-27
2023/12/06 05:58:32;;;;;;;4.78;2.47;;;;;;;12.65;51.65;95823.91;5084684;28;20027;-27
2023/12/06 06:00:58;;;;;;;5.13;2.30;;;;;;;12.58;52.07;95827.69;5082195;28;20051;-27
2023/12/06 06:03:24;;;;;;;5.43;2.88;;;;;;;12.71;51.81;95825.59;5082359;28;20111;-26
2023/12/06 06:05:49;;;;;;;14.18;5.85;;;;;;;12.81;51.58;95839.94;5081706;28;20073;-26
2023/12/06 06:08:15;;;;;;;32.55;10.23;;;;;;;12.62;51.79;95832.97;5082021;28;20381;-27
2023/12/06 06:10:40;;;;;;;34.35;12.02;;;;;;;12.43;52.39;95827.53;5081648;28;20023;-26
2023/12/06 06:13:06;;;;;;;26.75;10.25;;;;;;;12.56;51.97;95830.88;5081520;28;20013;-26
2023/12/06 06:15:31;;;;;;;21.85;7.68;;;;;;;12.65;51.85;95837.50;5081464;28;20031;-27
2023/12/06 06:17:56;;;;;;;15.13;4.55;;;;;;;12.40;52.62;95841.28;5073859;28;20024;-27
2023/12/06 06:20:22;;;;;;;9.77;4.28;;;;;;;12.64;51.81;95836.00;5084327;28;20111;-27
2023/12/06 06:22:47;;;;;;;4.40;2.10;;;;;;;12.71;51.75;95835.72;5078373;28;20028;-26
2023/12/06 06:25:13;;;;;;;4.38;1.90;;;;;;;12.63;52.03;95839.94;5081462;28;20415;-26
2023/12/06 06:27:38;;;;;;;3.03;1.30;;;;;;;12.62;52.22;95836.44;5080380;28;20024;-26
2023/12/06 06:30:04;;;;;;;2.80;1.40;;;;;;;12.64;51.86;95838.72;5080986;28;20020;-26
2023/12/06 06:32:30;;;;;;;4.20;1.70;;;;;;;12.67;51.89;95835.84;5080939;28;20454;-26
2023/12/06 06:34:55;;;;;;;3.67;1.83;;;;;;;12.77;51.86;95833.88;5081231;28;20033;-27
2023/12/06 06:37:21;;;;;;;3.53;1.35;;;;;;;12.67;52.17;95832.38;5080644;28;20024;-26
2023/12/06 06:39:47;;;;;;;3.20;1.10;;;;;;;12.73;51.70;95841.47;5081181;28;20077;-26
2023/12/06 06:42:13;;;;;;;2.45;1.38;;;;;;;12.58;52.32;95842.06;5080369;28;20024;-26
2023/12/06 06:44:40;;;;;;;3.90;1.20;;;;;;;12.69;52.21;95857.16;5082416;28;20024;-26
2023/12/06 06:47:06;;;;;;;4.28;1.50;;;;;;;12.74;52.34;95851.09;5068193;28;20028;-26
2023/12/06 06:49:31;;;;;;;4.03;1.20;;;;;;;12.76;52.29;95859.56;5080613;28;20044;-26
2023/12/06 06:51:57;;;;;;;3.05;0.98;;;;;;;12.69;52.28;95854.44;5076188;28;20028;-26
2023/12/06 06:54:22;;;;;;;2.75;1.20;;;;;;;12.61;52.31;95864.84;5084921;28;20021;-26
2023/12/06 06:56:48;;;;;;;6.00;1.23;;;;;;;12.69;52.13;95857.94;5088072;28;20024;-27
2023/12/06 06:59:13;;;;;;;1.63;0.93;;;;;;;12.78;51.75;95862.59;5085093;28;20020;-27
2023/12/06 07:01:39;;;;;;;2.42;1.30;;;;;;;12.82;51.93;95868.66;5075634;28;20024;-26
2023/12/06 07:04:05;;;;;;;4.10;1.90;;;;;;;12.83;52.19;95870.16;5081399;28;20100;-26
2023/12/06 07:06:30;;;;;;;3.08;2.22;;;;;;;12.88;51.94;95877.72;5079566;28;20048;-26
2023/12/06 07:08:55;;;;;;;4.07;1.70;;;;;;;12.94;51.89;95878.63;5082143;28;20077;-26
2023/12/06 07:11:21;;;;;;;4.15;2.30;;;;;;;13.05;51.51;95883.59;5080523;28;20012;-26
2023/12/06 07:13:48;;;;;;;3.83;2.10;;;;;;;12.88;52.00;95891.31;5080305;28;20468;-26
2023/12/06 07:16:13;;;;;;;4.03;2.28;;;;;;;12.86;52.37;95888.28;5075037;28;20027;-26
2023/12/06 07:18:39;;;;;;;2.83;2.03;;;;;;;12.90;52.20;95897.81;5079034;28;20024;-26
2023/12/06 07:21:05;;;;;;;5.40;2.33;;;;;;;12.99;51.95;95904.47;5080193;28;20024;-26
2023/12/06 07:23:31;;;;;;;6.13;2.08;;;;;;;12.91;52.37;95899.34;5076629;28;20055;-26
2023/12/06 07:25:58;;;;;;;4.10;2.33;;;;;;;12.86;52.61;95912.78;5083899;28;20048;-26
2023/12/06 07:28:23;;;;;;;3.75;2.08;;;;;;;13.03;52.15;95911.28;5075001;28;20024;-26
2023/12/06 07:30:49;;;;;;;4.63;1.80;;;;;;;12.84;52.48;95907.81;5083344;28;20031;-26
2023/12/06 07:33:15;;;;;;;3.03;1.52;;;;;;;12.96;52.01;95917.03;5082591;28;20026;-26
2023/12/06 07:35:41;;;;;;;3.97;1.75;;;;;;;12.85;52.70;95914.78;5073163;28;20031;-26
2023/12/06 07:38:09;;;;;;;5.38;2.60;;;;;;;12.98;52.39;95920.06;5080691;28;20028;-26
2023/12/06 07:40:35;;;;;;;3.95;2.13;;;;;;;13.00;52.19;95923.06;5079840;28;20020;-26
2023/12/06 07:43:00;;;;;;;4.88;2.28;;;;;;;12.89;52.57;95920.03;5079901;28;20032;-26
2023/12/06 07:45:26;;;;;;;5.28;2.05;;;;;;;12.91;52.69;95926.56;5079899;28;20024;-26
2023/12/06 07:47:52;;;;;;;4.15;2.10;;;;;;;12.84;53.09;95931.56;5079765;28;20048;-26
2023/12/06 07:50:20;;;;;;;2.92;2.47;;;;;;;13.00;52.64;95928.50;5079813;28;20024;-26
2023/12/06 07:52:47;;;;;;;4.15;2.92;;;;;;;12.98;52.89;95927.47;5081717;28;20171;-26
2023/12/06 07:55:13;;;;;;;7.00;3.47;;;;;;;12.90;53.03;95922.31;5086185;28;20103;-26
2023/12/06 07:57:39;;;;;;;4.78;2.92;;;;;;;13.01;52.86;95930.03;5080108;28;20028;-26
2023/12/06 08:00:05;;;;;;;3.47;2.60;;;;;;;13.05;52.36;95925.19;5091389;28;20025;-26
2023/12/06 08:02:32;;;;;;;7.88;2.60;;;;;;;13.00;52.57;95923.06;5082813;28;20099;-26
2023/12/06 08:04:57;;;;;;;7.22;3.25;;;;;;;12.82;53.14;95925.81;5078698;28;20512;-26
2023/12/06 08:07:24;;;;;;;5.15;2.60;;;;;;;12.98;52.80;95925.50;5090227;28;20028;-26
2023/12/06 08:09:52;;;;;;;5.35;2.67;;;;;;;13.00;53.25;95930.47;5084034;28;20432;-26
2023/12/06 08:12:17;;;;;;;7.65;3.45;;;;;;;13.00;53.43;95933.19;5083405;28;20012;-26
2023/12/06 08:14:43;;;;;;;6.43;3.58;;;;;;;12.99;53.37;95940.59;5083349;28;20036;-26
2023/12/06 08:17:09;;;;;;;8.20;3.78;;;;;;;13.04;53.39;95939.25;5083520;28;20032;-26
2023/12/06 08:19:34;;;;;;;6.15;3.30;;;;;;;12.94;53.92;95936.53;5083398;28;20021;-26
2023/12/06 08:22:00;;;;;;;5.20;3.20;;;;;;;13.17;53.38;95943.38;5083566;28;20368;-26
2023/12/06 08:24:25;;;;;;;7.75;3.83;;;;;;;13.10;54.03;95937.47;5086920;28;20055;-26
2023/12/06 08:26:51;;;;;;;9.63;4.03;;;;;;;13.10;54.08;95934.72;5081184;28;20028;-26
2023/12/06 08:29:16;;;;;;;5.40;2.97;;;;;;;13.15;54.34;95934.91;5083304;28;20024;-26
2023/12/06 08:31:41;;;;;;;4.82;2.78;;;;;;;13.15;54.53;95934.91;5082966;28;20382;-26
2023/12/06 08:34:07;;;;;;;6.15;2.38;;;;;;;13.12;54.87;95935.00;5083094;28;20566;-26
2023/12/06 08:36:32;;;;;;;4.57;2.50;;;;;;;13.22;54.91;95931.13;5075865;28;20043;-26
2023/12/06 08:38:58;;;;;;;7.57;2.33;;;;;;;13.16;55.03;95928.25;5082843;28;20481;-26
2023/12/06 08:41:23;;;;;;;3.90;1.90;;;;;;;13.10;54.78;95930.03;5076103;28;20021;-26
2023/12/06 08:43:49;;;;;;;5.43;1.63;;;;;;;13.34;53.92;95934.91;5086983;28;20109;-26
2023/12/06 08:46:15;;;;;;;3.40;2.00;;;;;;;13.19;54.35;95927.34;5080275;28;20378;-26
2023/12/06 08:48:41;;;;;;;4.03;1.60;;;;;;;13.24;54.47;95937.59;5090118;28;20508;-26
2023/12/06 08:51:08;;;;;;;2.97;1.38;;;;;;;13.32;53.97;95948.22;5087449;28;20032;-26
2023/12/06 08:53:34;;;;;;;2.97;1.48;;;;;;;13.62;53.21;95956.16;5078257;28;20016;-26
2023/12/06 08:55:59;;;;;;;2.05;1.27;;;;;;;16.51;45.79;95951.44;5083009;28;20055;-26
2023/12/06 08:58:25;;;;;;;4.05;0.90;;;;;;;19.87;37.75;95956.31;5089066;28;20050;-26
2023/12/06 09:00:50;;;;;;;2.03;1.15;;;;;;;21.59;34.13;95959.94;5084095;28;20031;-26
2023/12/06 09:03:16;;;;;;;1.90;0.90;;;;;;;21.54;33.60;95957.97;5082719;28;20025;-27
2023/12/06 09:05:41;;;;;;;3.03;1.10;;;;;;;21.55;33.37;95953.94;5082531;28;20016;-26
2023/12/06 09:08:06;;;;;;;3.50;1.00;;;;;;;22.66;31.50;95962.63;5057523;28;20046;-26
2023/12/06 09:10:32;;;;;;;3.33;0.63;;;;;;;22.81;31.19;95963.03;5080844;28;20032;-27
2023/12/06 09:12:58;;;;;;;3.17;0.90;;;;;;;23.02;30.70;95968.81;5084691;28;20020;-27
2023/12/06 09:15:23;;;;;;;3.50;1.02;;;;;;;23.25;30.23;95964.53;5082616;28;20021;-27
2023/12/06 09:17:49;;;;;;;4.68;1.08;;;;;;;22.17;31.54;95968.09;5083374;28;20090;-26
2023/12/06 09:20:16;;;;;;;4.00;1.08;;;;;;;22.20;32.58;95970.59;5083839;28;20028;-26
2023/12/06 09:22:42;;;;;;;3.20;1.17;;;;;;;21.61;33.51;95982.25;5080601;28;20021;-26
2023/12/06 09:25:07;;;;;;;3.78;1.20;;;;;;;21.65;33.87;95970.94;5082530;28;20398;-27
2023/12/06 09:27:33;;;;;;;2.78;1.02;;;;;;;22.45;32.59;95963.09;5082212;28;20046;-26
2023/12/06 09:29:59;;;;;;;2.88;1.20;;;;;;;21.75;33.22;95961.13;5081753;28;20058;-27
2023/12/06 09:32:24;;;;;;;2.38;1.30;;;;;;;21.63;34.00;95963.19;5075840;28;20056;-26
2023/12/06 09:34:50;;;;;;;3.03;1.58;;;;;;;21.75;33.73;95961.13;5082394;28;20032;-27
2023/12/06 09:37:16;;;;;;;2.15;1.63;;;;;;;18.99;39.29;95963.78;5082103;28;20038;-26
2023/12/06 09:39:42;;;;;;;2.80;1.45;;;;;;;16.87;44.33;95963.91;5085010;28;20031;-26
2023/12/06 09:42:07;;;;;;;1.98;1.10;;;;;;;16.29;46.48;95964.81;5086629;28;20021;-27
2023/12/06 09:44:37;;;;;;;2.35;1.40;;;;;;;15.94;47.60;95964.75;5082545;28;20016;-27
2023/12/06 09:47:02;;;;;;;4.35;1.55;;;;;;;15.38;49.19;95950.84;5079130;28;20016;-27
2023/12/06 09:49:28;;;;;;;2.80;1.40;;;;;;;15.13;49.89;95959.56;5084672;28;20036;-27
2023/12/06 09:52:03;;;;;;;4.47;1.95;;;;;;;14.84;50.75;95962.94;5077108;28;20024;-27
2023/12/06 09:54:28;;;;;;;5.38;1.85;;;;;;;14.85;51.55;95955.50;5077487;28;20130;-26
2023/12/06 09:56:54;;;;;;;4.50;1.80;;;;;;;14.58;52.37;95965.41;5089584;28;20055;-26
2023/12/06 09:59:19;;;;;;;4.00;1.58;;;;;;;14.47;52.57;95967.84;5074528;28;20016;-26
2023/12/06 10:01:45;;;;;;;4.90;1.38;;;;;;;14.39;52.94;95969.41;5082099;28;20030;-27
2023/12/06 10:04:10;;;;;;;3.65;1.65;;;;;;;14.22;53.71;95963.53;5081914;28;20021;-27
2023/12/06 10:06:36;;;;;;;6.05;2.08;;;;;;;14.13;53.99;95958.13;5088315;28;20032;-26
2023/12/06 10:09:03;;;;;;;4.05;1.85;;;;;;;14.04;54.56;95955.44;5081790;28;20050;-26
2023/12/06 10:11:28;;;;;;;2.42;1.60;;;;;;;13.98;54.82;95949.09;5081774;28;20013;-27
2023/12/06 10:13:54;;;;;;;3.45;1.85;;;;;;;14.08;54.04;95953.31;5081732;28;20078;-26
2023/12/06 10:16:21;;;;;;;5.75;2.05;;;;;;;13.83;55.08;95954.47;5081341;28;20788;-26
2023/12/06 10:18:48;;;;;;;4.63;2.40;;;;;;;13.75;55.60;95945.09;5081452;28;20056;-27
2023/12/06 10:21:14;;;;;;;3.00;2.10;;;;;;;13.72;55.59;95954.19;5082845;28;20441;-26
2023/12/06 10:23:41;;;;;;;3.63;2.40;;;;;;;13.71;55.15;95957.38;5084287;28;20024;-27
2023/12/06 10:26:16;;;;;;;3.55;2.03;;;;;;;13.74;55.00;95951.75;5083559;28;20069;-26
2023/12/06 10:28:44;;;;;;;3.35;2.10;;;;;;;13.60;55.10;95958.59;5081312;28;20069;-27
2023/12/06 10:31:10;;;;;;;4.68;2.35;;;;;;;13.76;55.68;95948.56;5081196;28;20020;-27
2023/12/06 10:33:39;;;;;;;2.15;1.75;;;;;;;13.59;56.18;95950.91;5088514;28;20059;-26
2023/12/06 10:36:08;;;;;;;2.45;1.90;;;;;;;13.49;56.75;95933.78;5081344;28;20029;-26
2023/12/06 10:38:36;;;;;;;2.63;2.00;;;;;;;13.60;56.28;95938.75;5080959;28;20028;-26
2023/12/06 10:41:04;;;;;;;5.00;2.33;;;;;;;13.64;56.62;95937.41;5086345;28;20047;-28
2023/12/06 10:43:32;;;;;;;2.47;1.92;;;;;;;13.61;56.55;95937.53;5082249;28;20102;-26
2023/12/06 10:45:59;;;;;;;2.80;2.00;;;;;;;13.44;57.12;95939.13;5084760;28;20389;-26
2023/12/06 10:48:27;;;;;;;2.78;1.85;;;;;;;13.44;57.15;95950.00;5076313;28;20044;-26
2023/12/06 10:50:54;;;;;;;4.70;2.00;;;;;;;13.59;56.70;95935.31;5081400;28;20415;-26
2023/12/06 10:53:20;;;;;;;4.00;2.00;;;;;;;13.50;57.14;95935.31;5081104;28;20020;-26
2023/12/06 10:55:47;;;;;;;2.58;1.55;;;;;;;13.54;56.72;95941.34;5081774;28;20381;-26
2023/12/06 10:58:16;;;;;;;3.58;1.70;;;;;;;13.60;56.25;95933.31;5083606;28;20043;-27
2023/12/06 11:00:42;;;;;;;3.08;1.80;;;;;;;13.22;57.63;95940.06;5075898;28;20017;-26
2023/12/06 11:03:08;;;;;;;2.83;1.48;;;;;;;13.35;57.30;95933.69;5080710;28;20118;-26
2023/12/06 11:05:39;;;;;;;3.00;1.58;;;;;;;13.40;57.18;95931.09;5079318;28;20060;-26
2023/12/06 11:08:31;;;;;;;2.58;1.77;;;;;;;13.10;58.00;95930.03;5081046;28;20020;-26
2023/12/06 11:11:06;;;;;;;7.93;4.50;;;;;;;13.32;57.52;95929.91;5080069;28;20026;-26
2023/12/06 11:14:00;;;;;;;7.95;4.75;;;;;;;13.35;57.43;95931.72;5080457;28;20077;-26
2023/12/06 11:16:53;;;;;;;8.45;5.50;;;;;;;13.27;57.81;95931.25;5080375;28;20020;-27
2023/12/06 11:19:19;;;;;;;9.82;6.30;;;;;;;13.32;57.76;95927.19;5081651;28;20030;-26
2023/12/06 11:21:45;;;;;;;8.80;6.03;;;;;;;13.25;57.34;95928.22;5080103;28;20029;-26
2023/12/06 11:24:16;;;;;;;14.32;6.82;;;;;;;13.16;57.56;95930.97;5080882;28;20346;-26
2023/12/06 11:26:42;;;;;;;10.45;6.40;;;;;;;13.26;57.15;95920.81;5080018;28;20043;-26